メインページ
METAR-TAF:

METAR-TAF

空港 :

タヒチ, フランス領ポリネシア

ファアア国際空港

緯度: 17-33S, 経度: 149-37W, 海抜: 2m

現時点の気象観測

当レポートは28分前の10:00(UTC)に作成
変向風 3kt
気温 25°C
湿度 83%
気圧 1015 hPa
視程10km以上
高度2300ftの雲はほとんどない

METAR: NTAA 231000Z VRB03KT 9999 FEW023 25/22 Q1015 NOSIG

時間: 00:28 (10:28 UTC)

予報

当レポートは5時間28分前の05:00(UTC)に作成
予報は23日の 06時(UTC)から 24日の 12時(UTC)まで有効
変向風 5kt
視程10km以上
高度2300ftの雲はほとんどない
確率 30% :
23日の 20時(UTC)から 24日の 03時(UTC)まで一時的に
北東の風 15kt

TAF: NTAA 230500Z 2306/2412 VRB05KT 9999 FEW023 PROB30 TEMPO 2320/2403 04015KT

4,000以上の空港の気象観測と天気予報(METAR報とTAF報)

利用可能な観測所は地図上に黄色い丸と赤い丸で示す。

丸の上にカーソルを重ねると観測所名を参照できる。

次にクリックすると気象観測と天気予報を参照できる。

マップの切り替え:黒色「×」印の緑ボタンをクリックして拡大、「-」印の緑ボタンをクリックして縮小、緑色の三角印をクリックして隣りの地図に切り替え


METAR-TAF: